createdAt,value
2019-05-13T00:00:44.618Z,99.90
2019-05-13T00:03:14.061Z,99.90
2019-05-13T00:05:44.500Z,99.90
2019-05-13T00:08:14.135Z,99.90
2019-05-13T00:10:44.545Z,99.90
2019-05-13T00:13:14.694Z,99.90
2019-05-13T00:15:44.495Z,99.90
2019-05-13T00:18:14.453Z,99.90
2019-05-13T00:20:44.320Z,99.90
2019-05-13T00:23:14.330Z,99.90
2019-05-13T00:25:44.390Z,99.90
2019-05-13T00:28:14.532Z,99.90
2019-05-13T00:30:44.538Z,99.90
2019-05-13T00:33:14.245Z,99.90
2019-05-13T00:35:44.222Z,99.90
2019-05-13T00:38:14.231Z,99.90
2019-05-13T00:40:44.357Z,99.90
2019-05-13T00:43:14.290Z,99.90
2019-05-13T00:45:44.906Z,99.90
2019-05-13T00:48:14.466Z,99.90
2019-05-13T00:50:44.507Z,99.90
2019-05-13T00:53:13.852Z,99.90
2019-05-13T00:55:44.484Z,99.90
2019-05-13T00:58:14.181Z,99.90
2019-05-13T01:00:44.627Z,99.90
2019-05-13T01:03:14.512Z,99.90
2019-05-13T01:05:44.459Z,99.90
2019-05-13T01:08:14.702Z,99.90
2019-05-13T01:10:45.120Z,99.90
2019-05-13T01:13:14.296Z,99.90
2019-05-13T01:15:44.265Z,99.90
2019-05-13T01:18:14.415Z,99.90
2019-05-13T01:20:44.003Z,99.90
2019-05-13T01:23:14.098Z,99.90
2019-05-13T01:25:44.431Z,99.90
2019-05-13T01:28:13.922Z,99.90
2019-05-13T01:30:43.927Z,99.90
2019-05-13T01:33:14.401Z,99.90
2019-05-13T01:35:44.502Z,99.90
2019-05-13T01:38:13.866Z,99.90
2019-05-13T01:40:44.029Z,99.90
2019-05-13T01:43:14.349Z,99.90
2019-05-13T01:45:44.117Z,99.90
2019-05-13T01:48:14.336Z,99.90
2019-05-13T01:50:44.439Z,99.90
2019-05-13T01:53:14.491Z,99.90
2019-05-13T01:55:44.307Z,99.90
2019-05-13T01:58:14.556Z,99.90
2019-05-13T02:00:44.456Z,99.90
2019-05-13T02:03:14.704Z,99.90
2019-05-13T02:05:44.491Z,99.90
2019-05-13T02:08:14.321Z,99.90
2019-05-13T02:10:57.035Z,99.90
2019-05-13T02:13:26.586Z,99.90
2019-05-13T02:15:56.077Z,99.90
2019-05-13T02:18:25.097Z,99.90
2019-05-13T02:20:55.438Z,99.90
2019-05-13T02:23:24.958Z,99.90
2019-05-13T02:25:54.543Z,99.90
2019-05-13T02:28:25.024Z,99.90
2019-05-13T02:30:56.709Z,99.90
2019-05-13T02:33:25.308Z,99.90
2019-05-13T02:35:54.590Z,99.90
2019-05-13T02:38:29.391Z,99.90
2019-05-13T02:40:54.346Z,99.90
2019-05-13T02:43:24.248Z,99.90
2019-05-13T02:45:54.466Z,99.90
2019-05-13T02:48:24.346Z,99.90
2019-05-13T02:50:54.671Z,99.90
2019-05-13T02:53:24.529Z,99.90
2019-05-13T02:55:54.017Z,99.90
2019-05-13T02:58:24.909Z,99.90
2019-05-13T03:00:54.389Z,99.90
2019-05-13T03:03:24.052Z,99.90
2019-05-13T03:05:53.867Z,99.90
2019-05-13T03:08:39.857Z,99.90
2019-05-13T03:10:54.155Z,99.90
2019-05-13T03:13:23.972Z,99.90
2019-05-13T03:16:18.776Z,99.90
2019-05-13T03:18:47.970Z,99.90
2019-05-13T03:21:16.981Z,99.90
2019-05-13T03:23:45.909Z,99.90
2019-05-13T03:26:14.902Z,99.90
2019-05-13T03:28:44.287Z,99.90
2019-05-13T03:31:16.895Z,99.90
2019-05-13T03:33:47.190Z,99.90
2019-05-13T03:36:17.263Z,99.90
2019-05-13T03:39:01.680Z,99.90
2019-05-13T03:41:18.552Z,99.90
2019-05-13T03:43:52.418Z,99.90
2019-05-13T03:46:23.083Z,99.90
2019-05-13T03:48:54.544Z,99.90
2019-05-13T03:51:23.951Z,99.90
2019-05-13T03:53:53.745Z,99.90
2019-05-13T03:56:24.109Z,99.90
2019-05-13T03:58:53.735Z,99.90
2019-05-13T04:01:23.218Z,99.90
2019-05-13T04:03:53.177Z,99.90
2019-05-13T04:06:23.258Z,99.90
2019-05-13T04:08:54.095Z,99.90
2019-05-13T04:11:23.334Z,99.90
2019-05-13T04:13:53.046Z,99.90
2019-05-13T04:16:23.780Z,99.90
2019-05-13T04:18:53.799Z,99.90
2019-05-13T04:21:23.375Z,99.90
2019-05-13T04:23:53.281Z,99.90
2019-05-13T04:26:23.504Z,99.90
2019-05-13T04:28:53.170Z,99.90
2019-05-13T04:31:22.952Z,99.90
2019-05-13T04:33:53.328Z,99.90
2019-05-13T04:36:23.726Z,99.90
2019-05-13T04:38:53.349Z,99.90
2019-05-13T04:41:23.159Z,99.90
2019-05-13T04:43:53.977Z,99.90
2019-05-13T04:46:24.355Z,99.90
2019-05-13T04:48:53.486Z,99.90
2019-05-13T04:51:23.065Z,99.90
2019-05-13T04:53:56.878Z,99.90
2019-05-13T04:56:23.311Z,99.90
2019-05-13T04:58:52.985Z,99.90
2019-05-13T05:01:59.408Z,99.90
2019-05-13T05:04:59.033Z,99.90
2019-05-13T05:07:42.060Z,99.90
2019-05-13T05:10:53.840Z,99.90
2019-05-13T05:14:12.019Z,99.90
2019-05-13T05:17:02.897Z,99.90
2019-05-13T05:20:03.661Z,99.90
2019-05-13T05:23:12.433Z,99.90
2019-05-13T05:26:05.098Z,99.90
2019-05-13T05:29:07.904Z,99.90
2019-05-13T05:32:03.007Z,99.90
2019-05-13T05:35:13.857Z,99.90
2019-05-13T05:38:25.983Z,99.90
2019-05-13T05:40:56.715Z,99.90
2019-05-13T05:43:31.364Z,99.90
2019-05-13T05:46:01.791Z,99.90
2019-05-13T05:48:32.763Z,99.90
2019-05-13T05:51:03.289Z,99.90
2019-05-13T05:53:32.463Z,99.90
2019-05-13T05:56:03.479Z,99.90
2019-05-13T05:58:34.138Z,99.90
2019-05-13T06:01:04.634Z,99.90
2019-05-13T06:03:35.439Z,99.90
2019-05-13T06:06:04.600Z,99.90
2019-05-13T06:08:33.835Z,98.30
2019-05-13T06:11:04.351Z,99.30
2019-05-13T06:13:33.441Z,82.50
2019-05-13T06:16:03.328Z,82.70
2019-05-13T06:18:32.723Z,65.10
2019-05-13T06:21:02.065Z,66.00
2019-05-13T06:23:31.457Z,57.30
2019-05-13T06:26:01.919Z,58.90
2019-05-13T06:28:32.247Z,57.50
2019-05-13T06:31:02.526Z,49.40
2019-05-13T06:33:31.921Z,45.60
2019-05-13T06:36:01.339Z,46.10
2019-05-13T06:38:31.638Z,50.70
2019-05-13T06:41:06.684Z,51.70
2019-05-13T06:43:32.155Z,45.10
2019-05-13T06:46:01.841Z,47.60
2019-05-13T06:48:32.312Z,48.80
2019-05-13T06:51:02.580Z,47.80
2019-05-13T06:53:32.459Z,39.80
2019-05-13T06:56:01.704Z,43.90
2019-05-13T06:58:32.498Z,43.30
2019-05-13T07:01:03.976Z,44.70
2019-05-13T07:03:33.312Z,43.00
2019-05-13T07:06:02.386Z,44.20
2019-05-13T07:08:31.616Z,45.20
2019-05-13T07:11:17.287Z,45.60
2019-05-13T07:13:32.469Z,44.40
2019-05-13T07:16:02.540Z,47.20
2019-05-13T07:18:32.402Z,43.70
2019-05-13T07:21:02.335Z,42.50
2019-05-13T07:23:32.294Z,45.10
2019-05-13T07:26:01.988Z,42.20
2019-05-13T07:28:32.298Z,42.10
2019-05-13T07:31:02.279Z,45.10
2019-05-13T07:33:32.303Z,42.80
2019-05-13T07:36:03.631Z,42.10
2019-05-13T07:38:33.410Z,41.20
2019-05-13T07:41:05.205Z,36.50
2019-05-13T07:43:34.312Z,38.90
2019-05-13T07:46:03.533Z,40.00
2019-05-13T07:48:32.731Z,41.80
2019-05-13T07:51:04.665Z,38.40
2019-05-13T07:53:34.454Z,39.30
2019-05-13T07:56:03.567Z,38.90
2019-05-13T07:58:37.122Z,38.40
2019-05-13T08:01:03.567Z,39.60
2019-05-13T08:03:32.584Z,37.60
2019-05-13T08:06:02.172Z,37.20
2019-05-13T08:08:32.369Z,38.50
2019-05-13T08:11:01.814Z,37.90
2019-05-13T08:13:31.571Z,35.00
2019-05-13T08:16:02.120Z,37.60
2019-05-13T08:18:32.037Z,36.30
2019-05-13T08:21:02.291Z,36.90
2019-05-13T08:23:32.527Z,41.10
2019-05-13T08:26:02.367Z,37.90
2019-05-13T08:28:32.554Z,35.70
2019-05-13T08:31:02.260Z,39.00
2019-05-13T08:33:32.322Z,39.00
2019-05-13T08:36:01.861Z,39.30
2019-05-13T08:38:32.087Z,39.30
2019-05-13T08:41:02.019Z,39.80
2019-05-13T08:43:31.868Z,38.10
2019-05-13T08:46:02.442Z,37.70
2019-05-13T08:48:32.314Z,38.20
2019-05-13T08:51:03.022Z,39.40
2019-05-13T08:53:32.557Z,40.10
2019-05-13T08:56:01.883Z,41.00
2019-05-13T08:58:32.056Z,41.40
2019-05-13T09:01:02.313Z,41.50
2019-05-13T09:03:32.723Z,41.10
2019-05-13T09:06:03.035Z,41.00
2019-05-13T09:08:32.305Z,42.00
2019-05-13T09:11:01.763Z,40.20
2019-05-13T09:13:33.063Z,40.80
2019-05-13T09:16:02.547Z,39.60
2019-05-13T09:18:32.320Z,40.20
2019-05-13T09:21:02.719Z,39.10
2019-05-13T09:23:32.523Z,39.70
2019-05-13T09:26:02.542Z,41.00
2019-05-13T09:28:32.519Z,40.00
2019-05-13T09:31:02.253Z,42.30
2019-05-13T09:33:32.760Z,43.90
2019-05-13T09:36:02.483Z,42.50
2019-05-13T09:38:32.611Z,44.20
2019-05-13T09:41:02.304Z,44.80
2019-05-13T09:43:31.740Z,44.60
2019-05-13T09:46:01.856Z,45.60
2019-05-13T09:48:32.108Z,47.50
2019-05-13T09:51:02.614Z,45.60
2019-05-13T09:53:33.098Z,45.20
2019-05-13T09:56:02.574Z,44.90
2019-05-13T09:58:33.028Z,45.20
2019-05-13T10:01:02.654Z,45.80
2019-05-13T10:03:33.139Z,45.30
2019-05-13T10:06:02.800Z,47.00
2019-05-13T10:08:32.871Z,46.80
2019-05-13T10:11:02.358Z,47.70
2019-05-13T10:13:31.827Z,47.60
2019-05-13T10:16:01.545Z,47.20
2019-05-13T10:18:32.683Z,46.80
2019-05-13T10:21:03.279Z,47.30
2019-05-13T10:23:33.122Z,48.30
2019-05-13T10:26:05.088Z,48.20
2019-05-13T10:28:35.006Z,48.70
2019-05-13T10:31:05.000Z,50.80
2019-05-13T10:33:34.293Z,51.70
2019-05-13T10:36:04.889Z,50.60
2019-05-13T10:38:34.069Z,52.20
2019-05-13T10:41:03.861Z,52.40
2019-05-13T10:43:33.355Z,53.30
2019-05-13T10:46:04.188Z,53.10
2019-05-13T10:48:33.353Z,54.30
2019-05-13T10:51:02.574Z,54.70
2019-05-13T10:53:32.200Z,55.00
2019-05-13T10:56:03.289Z,55.00
2019-05-13T10:58:32.749Z,55.70
2019-05-13T11:01:02.889Z,55.30
2019-05-13T11:03:33.256Z,55.00
2019-05-13T11:06:02.851Z,54.90
2019-05-13T11:08:33.114Z,53.50
2019-05-13T11:11:03.181Z,52.50
2019-05-13T11:13:50.860Z,54.00
2019-05-13T11:16:03.517Z,55.10
2019-05-13T11:18:33.081Z,55.50
2019-05-13T11:21:03.732Z,53.10
2019-05-13T11:23:32.894Z,54.80
2019-05-13T11:26:03.236Z,53.90
2019-05-13T11:28:33.095Z,52.60
2019-05-13T11:31:03.366Z,51.70
2019-05-13T11:33:32.887Z,52.70
2019-05-13T11:36:03.344Z,52.10
2019-05-13T11:38:33.081Z,52.80
2019-05-13T11:41:03.206Z,53.20
2019-05-13T11:43:33.234Z,50.00
2019-05-13T11:46:03.290Z,52.20
2019-05-13T11:48:32.713Z,51.90
2019-05-13T11:51:04.024Z,52.10
2019-05-13T11:53:34.504Z,51.60
2019-05-13T11:56:04.083Z,50.40
2019-05-13T11:58:33.444Z,50.90
2019-05-13T12:01:03.418Z,50.30
2019-05-13T12:03:32.822Z,50.50
2019-05-13T12:06:02.589Z,50.40
2019-05-13T12:08:33.749Z,50.20
2019-05-13T12:11:05.089Z,50.30
2019-05-13T12:13:34.336Z,48.80
2019-05-13T12:16:03.996Z,47.50
2019-05-13T12:18:33.378Z,47.70
2019-05-13T12:21:03.608Z,48.70
2019-05-13T12:23:33.378Z,47.00
2019-05-13T12:26:04.288Z,43.30
2019-05-13T12:28:33.336Z,44.80
2019-05-13T12:31:03.409Z,41.70
2019-05-13T12:33:33.012Z,40.40
2019-05-13T12:36:02.503Z,38.60
2019-05-13T12:38:33.176Z,39.40
2019-05-13T12:41:05.215Z,40.10
2019-05-13T12:43:33.271Z,39.00
2019-05-13T12:46:02.728Z,37.60
2019-05-13T12:48:32.002Z,39.20
2019-05-13T12:51:02.978Z,41.80
2019-05-13T12:53:32.344Z,39.90
2019-05-13T12:56:03.278Z,37.50
2019-05-13T12:58:33.828Z,39.20
2019-05-13T13:01:03.633Z,40.80
2019-05-13T13:03:32.743Z,37.60
2019-05-13T13:06:25.182Z,39.80
2019-05-13T13:08:42.384Z,41.80
2019-05-13T13:11:03.698Z,39.70
2019-05-13T13:13:54.038Z,41.70
2019-05-13T13:16:03.933Z,43.80
2019-05-13T13:18:33.747Z,39.80
2019-05-13T13:21:07.376Z,40.50
2019-05-13T13:23:34.198Z,42.30
2019-05-13T13:26:03.648Z,42.50
2019-05-13T13:28:34.043Z,42.00
2019-05-13T13:31:05.159Z,41.20
2019-05-13T13:33:34.637Z,40.70
2019-05-13T13:36:05.134Z,41.10
2019-05-13T13:38:35.990Z,38.90
2019-05-13T13:41:05.663Z,40.00
2019-05-13T13:43:37.096Z,42.10
2019-05-13T13:46:19.541Z,41.70
2019-05-13T13:48:36.423Z,39.90
2019-05-13T13:51:05.566Z,39.50
2019-05-13T13:53:34.738Z,40.40
2019-05-13T13:56:03.963Z,40.10
2019-05-13T13:58:33.196Z,39.40
2019-05-13T14:01:11.490Z,40.90
2019-05-13T14:03:34.776Z,41.40
2019-05-13T14:20:47.385Z,42.20
2019-05-13T14:23:16.485Z,42.60
2019-05-13T14:25:45.584Z,42.80
2019-05-13T14:28:17.535Z,41.00
2019-05-13T14:30:45.809Z,41.20
2019-05-13T14:33:14.906Z,41.60
2019-05-13T14:35:44.091Z,41.50
2019-05-13T14:38:13.172Z,41.30
2019-05-13T14:40:42.360Z,40.90
2019-05-13T14:43:12.167Z,36.30
2019-05-13T14:45:41.726Z,39.20
2019-05-13T14:48:12.629Z,38.50
2019-05-13T14:50:41.844Z,39.50
2019-05-13T14:53:11.057Z,42.30
2019-05-13T14:55:41.960Z,40.70
2019-05-13T14:58:11.162Z,41.10
2019-05-13T15:00:42.276Z,39.70
2019-05-13T15:03:13.036Z,39.30
2019-05-13T15:05:43.056Z,38.20
2019-05-13T15:08:13.364Z,36.80
2019-05-13T15:10:42.784Z,39.00
2019-05-13T15:13:11.926Z,42.00
2019-05-13T15:15:42.181Z,42.80
2019-05-13T15:18:12.510Z,41.40
2019-05-13T15:20:41.843Z,40.50
2019-05-13T15:23:11.939Z,42.60
2019-05-13T15:25:42.005Z,41.10
2019-05-13T15:28:12.064Z,37.90
2019-05-13T15:30:42.077Z,38.80
2019-05-13T15:33:11.592Z,40.10
2019-05-13T15:35:41.945Z,41.20
2019-05-13T15:38:12.558Z,42.60
2019-05-13T15:40:42.123Z,40.20
2019-05-13T15:43:11.734Z,40.40
2019-05-13T15:45:42.483Z,41.20
2019-05-13T15:48:11.819Z,41.80
2019-05-13T15:50:42.186Z,42.40
2019-05-13T15:53:12.775Z,40.60
2019-05-13T15:55:42.410Z,41.30
2019-05-13T15:58:11.921Z,41.20
2019-05-13T16:00:42.016Z,41.80
2019-05-13T16:03:12.243Z,42.50
2019-05-13T16:05:42.452Z,42.50
2019-05-13T16:08:12.375Z,41.50
2019-05-13T16:10:42.177Z,41.50
2019-05-13T16:13:11.950Z,41.10
2019-05-13T16:15:41.730Z,41.20
2019-05-13T16:18:11.721Z,39.20
2019-05-13T16:20:44.471Z,40.60
2019-05-13T16:23:13.918Z,40.10
2019-05-13T16:25:43.161Z,41.50
2019-05-13T16:28:12.370Z,41.10
2019-05-13T16:30:42.016Z,41.50
2019-05-13T16:33:12.263Z,42.30
2019-05-13T16:35:42.512Z,43.70
2019-05-13T16:38:11.807Z,44.00
2019-05-13T16:40:42.385Z,45.10
2019-05-13T16:43:13.845Z,44.30
2019-05-13T16:45:42.688Z,43.80
2019-05-13T16:48:12.563Z,44.30
2019-05-13T16:50:41.993Z,42.70
2019-05-13T16:53:11.287Z,40.30
2019-05-13T16:55:41.664Z,41.50
2019-05-13T16:58:12.529Z,43.10
2019-05-13T17:00:42.435Z,41.50
2019-05-13T17:03:12.090Z,43.30
2019-05-13T17:05:42.029Z,44.10
2019-05-13T17:08:11.512Z,44.00
2019-05-13T17:10:42.027Z,46.10
2019-05-13T17:13:11.780Z,47.50
2019-05-13T17:15:41.692Z,49.20
2019-05-13T17:18:12.903Z,49.80
2019-05-13T17:20:41.750Z,49.00
2019-05-13T17:23:12.434Z,49.30
2019-05-13T17:25:42.287Z,50.30
2019-05-13T17:28:13.311Z,50.60
2019-05-13T17:30:43.215Z,51.40
2019-05-13T17:33:12.408Z,51.90
2019-05-13T17:35:44.053Z,52.20
2019-05-13T17:38:16.455Z,52.90
2019-05-13T17:40:50.258Z,53.40
2019-05-13T17:43:21.349Z,53.50
2019-05-13T17:45:52.321Z,54.30
2019-05-13T17:48:26.773Z,54.70
2019-05-13T17:50:52.460Z,54.50
2019-05-13T17:53:21.749Z,55.30
2019-05-13T17:55:51.636Z,56.50
2019-05-13T17:58:22.169Z,56.60
2019-05-13T18:00:52.177Z,57.30
2019-05-13T18:03:21.829Z,57.80
2019-05-13T18:05:51.519Z,58.40
2019-05-13T18:08:20.868Z,58.40
2019-05-13T18:10:51.381Z,59.20
2019-05-13T18:13:21.534Z,59.30
2019-05-13T18:15:50.774Z,59.90
2019-05-13T18:18:21.531Z,60.90
2019-05-13T18:20:52.081Z,61.70
2019-05-13T18:23:21.558Z,63.00
2019-05-13T18:25:51.491Z,64.30
2019-05-13T18:28:28.488Z,65.40
2019-05-13T18:30:52.415Z,66.00
2019-05-13T18:33:21.656Z,69.00
2019-05-13T18:35:52.578Z,71.60
2019-05-13T18:38:21.980Z,74.00
2019-05-13T18:40:52.619Z,77.30
2019-05-13T18:43:23.100Z,77.50
2019-05-13T18:45:52.770Z,80.00
2019-05-13T18:48:22.438Z,79.90
2019-05-13T18:50:52.376Z,81.70
2019-05-13T18:53:21.726Z,85.50
2019-05-13T18:55:52.398Z,85.20
2019-05-13T18:58:22.420Z,89.60
2019-05-13T19:00:52.410Z,92.00
2019-05-13T19:03:21.918Z,94.20
2019-05-13T19:05:51.126Z,98.50
2019-05-13T19:08:21.528Z,97.80
2019-05-13T19:10:52.191Z,99.90
2019-05-13T19:13:21.920Z,99.90
2019-05-13T19:15:51.826Z,99.90
2019-05-13T19:18:21.538Z,99.90
2019-05-13T19:20:51.342Z,99.90
2019-05-13T19:23:20.610Z,99.90
2019-05-13T19:25:51.327Z,99.90
2019-05-13T19:28:22.255Z,99.90
2019-05-13T19:30:51.864Z,99.90
2019-05-13T19:33:22.128Z,99.90
2019-05-13T19:35:51.886Z,99.90
2019-05-13T19:38:21.477Z,99.90
2019-05-13T19:40:50.617Z,99.90
2019-05-13T19:43:21.687Z,99.90
2019-05-13T19:45:51.912Z,99.90
2019-05-13T19:48:21.813Z,99.90
2019-05-13T19:50:52.104Z,99.90
2019-05-13T19:53:21.786Z,99.90
2019-05-13T19:55:51.966Z,99.90
2019-05-13T19:58:21.691Z,99.90
2019-05-13T20:00:51.572Z,99.90
2019-05-13T20:03:22.628Z,99.90
2019-05-13T20:05:52.005Z,99.90
2019-05-13T20:08:21.252Z,99.90
2019-05-13T20:10:51.483Z,99.90
2019-05-13T20:13:21.871Z,99.90
2019-05-13T20:15:51.849Z,99.90
2019-05-13T20:18:22.879Z,99.90
2019-05-13T20:20:52.068Z,99.90
2019-05-13T20:23:21.369Z,99.90
2019-05-13T20:25:52.272Z,99.90
2019-05-13T20:28:21.639Z,99.90
2019-05-13T20:30:51.131Z,99.90
2019-05-13T20:33:22.135Z,99.90
2019-05-13T20:35:52.366Z,99.90
2019-05-13T20:38:22.169Z,99.90
2019-05-13T20:40:51.928Z,99.90
2019-05-13T20:43:22.519Z,99.90
2019-05-13T20:45:51.860Z,99.90
2019-05-13T20:48:21.286Z,99.90
2019-05-13T20:50:51.890Z,99.90
2019-05-13T20:53:21.970Z,99.90
2019-05-13T20:55:52.080Z,99.90
2019-05-13T20:58:21.500Z,99.90
2019-05-13T21:00:51.540Z,99.90
2019-05-13T21:03:22.156Z,99.90
2019-05-13T21:05:52.273Z,99.90
2019-05-13T21:08:21.787Z,99.90
2019-05-13T21:10:51.707Z,99.90
2019-05-13T21:13:21.255Z,99.90
2019-05-13T21:15:51.901Z,99.90
2019-05-13T21:18:22.150Z,99.90
2019-05-13T21:20:51.847Z,99.90
2019-05-13T21:23:21.734Z,99.90
2019-05-13T21:25:51.266Z,99.90
2019-05-13T21:28:22.068Z,99.90
2019-05-13T21:30:51.516Z,99.90
2019-05-13T21:33:22.156Z,99.90
2019-05-13T21:35:51.500Z,99.90
2019-05-13T21:38:22.241Z,99.90
2019-05-13T21:40:52.213Z,99.90
2019-05-13T21:43:21.902Z,99.90
2019-05-13T21:45:52.296Z,99.90
2019-05-13T21:48:21.915Z,99.90
2019-05-13T21:50:54.038Z,99.90
2019-05-13T21:53:24.577Z,99.90
2019-05-13T21:55:53.895Z,99.90
2019-05-13T21:58:22.988Z,99.90
2019-05-13T22:00:53.791Z,99.90
2019-05-13T22:03:23.142Z,99.90
2019-05-13T22:05:52.179Z,99.90
2019-05-13T22:08:21.723Z,99.90
2019-05-13T22:10:52.428Z,99.90
2019-05-13T22:13:21.788Z,99.90
2019-05-13T22:15:52.469Z,99.90
2019-05-13T22:18:21.700Z,99.90
2019-05-13T22:20:53.599Z,99.90
2019-05-13T22:23:21.691Z,99.90
2019-05-13T22:25:51.927Z,99.90
2019-05-13T22:28:22.094Z,99.90
2019-05-13T22:30:51.792Z,99.90
2019-05-13T22:33:21.579Z,99.90
2019-05-13T22:35:52.286Z,99.90
2019-05-13T22:38:21.621Z,99.90
2019-05-13T22:40:52.090Z,99.90
2019-05-13T22:43:21.608Z,99.90
2019-05-13T22:45:51.151Z,99.90
2019-05-13T22:48:22.255Z,99.90
2019-05-13T22:50:52.328Z,99.90
2019-05-13T22:53:21.382Z,99.90
2019-05-13T22:55:52.137Z,99.90
2019-05-13T22:58:22.576Z,99.90
2019-05-13T23:00:52.125Z,99.90
2019-05-13T23:03:21.292Z,99.90
2019-05-13T23:05:52.237Z,99.90
2019-05-13T23:08:21.752Z,99.90
2019-05-13T23:10:51.527Z,99.90
2019-05-13T23:13:20.861Z,99.90
2019-05-13T23:15:51.660Z,99.90
2019-05-13T23:18:22.217Z,99.90
2019-05-13T23:20:51.663Z,99.90
2019-05-13T23:23:22.142Z,99.90
2019-05-13T23:25:51.359Z,99.90
2019-05-13T23:28:21.649Z,99.90
2019-05-13T23:30:51.236Z,99.90
2019-05-13T23:33:21.947Z,99.90
2019-05-13T23:35:51.372Z,99.90
2019-05-13T23:38:21.402Z,99.90
2019-05-13T23:40:51.621Z,99.90
2019-05-13T23:43:21.690Z,99.90
2019-05-13T23:45:51.331Z,99.90
2019-05-13T23:48:21.567Z,99.90
2019-05-13T23:50:52.091Z,99.90
2019-05-13T23:53:22.095Z,99.90
2019-05-13T23:55:52.028Z,99.90
2019-05-13T23:58:21.839Z,99.90
